createdAt,value
2022-08-17T06:21:27.439Z,984.97
2022-08-17T06:21:33.299Z,984.97
2022-08-17T06:22:34.624Z,984.95
2022-08-17T06:23:37.362Z,984.97
2022-08-17T06:24:38.732Z,984.91
2022-08-17T06:25:20.202Z,984.95
2022-08-17T06:26:20.966Z,984.96
2022-08-17T06:27:23.735Z,984.96
2022-08-17T06:28:24.642Z,984.98
2022-08-17T06:29:26.178Z,984.98
2022-08-17T06:30:28.013Z,984.95
2022-08-17T06:31:29.733Z,984.95
2022-08-17T06:32:31.365Z,984.89
2022-08-17T06:33:33.089Z,984.86
2022-08-17T06:34:34.827Z,984.89
2022-08-17T06:35:36.589Z,984.89
2022-08-17T06:36:38.412Z,984.82
2022-08-17T06:37:40.277Z,984.81
2022-08-17T06:38:41.793Z,984.8
2022-08-17T06:39:43.547Z,984.77
2022-08-17T06:40:45.260Z,984.76
2022-08-17T06:41:47.031Z,984.73
2022-08-17T06:43:06.830Z,984.68
2022-08-17T06:43:50.451Z,984.7
2022-08-17T06:44:52.175Z,984.66
2022-08-17T06:45:54.175Z,984.66
2022-08-17T06:46:55.693Z,984.7
2022-08-17T06:47:57.620Z,984.7
2022-08-17T06:48:59.362Z,984.75
2022-08-17T06:50:00.872Z,984.72
2022-08-17T06:51:02.611Z,984.73
2022-08-17T06:52:04.573Z,984.73
2022-08-17T06:53:06.248Z,984.74
2022-08-17T06:54:08.018Z,984.76
2022-08-17T06:55:09.538Z,984.72
2022-08-17T06:56:11.271Z,984.73
2022-08-17T06:57:13.106Z,984.75
2022-08-17T06:58:15.923Z,984.71
2022-08-17T06:59:16.826Z,984.7
2022-08-17T07:00:18.702Z,984.73
2022-08-17T07:01:20.540Z,984.78
2022-08-17T07:02:28.880Z,984.73
2022-08-17T07:03:24.232Z,984.79
2022-08-17T07:04:26.400Z,984.74
2022-08-17T07:05:27.704Z,984.78
2022-08-17T07:06:29.634Z,984.77
2022-08-17T07:07:30.745Z,984.75
2022-08-17T07:08:34.869Z,984.79
2022-08-17T07:09:34.237Z,984.83
2022-08-17T07:10:35.770Z,984.85
2022-08-17T07:11:37.567Z,984.83
2022-08-17T07:12:39.248Z,984.87
2022-08-17T07:13:41.113Z,984.84
2022-08-17T07:14:42.757Z,984.89
2022-08-17T07:15:44.563Z,984.9
2022-08-17T07:16:46.626Z,984.95
2022-08-17T07:17:48.577Z,984.9
2022-08-17T07:18:49.541Z,984.89
2022-08-17T07:19:51.500Z,984.95
2022-08-17T07:20:53.078Z,984.89
2022-08-17T07:21:54.911Z,984.9
2022-08-17T07:23:00.087Z,984.93
2022-08-17T07:23:58.571Z,984.94
2022-08-17T07:25:00.431Z,984.98
2022-08-17T07:26:02.054Z,984.94
2022-08-17T07:27:03.747Z,984.98
2022-08-17T07:28:07.161Z,984.98
2022-08-17T07:29:07.275Z,984.97
2022-08-17T07:30:10.549Z,984.97
2022-08-17T07:31:39.808Z,985.07
2022-08-17T07:32:37.715Z,985.09
2022-08-17T07:33:39.453Z,985.1
2022-08-17T07:34:41.194Z,985.19
2022-08-17T07:35:44.029Z,985.27
2022-08-17T07:36:44.732Z,985.32
2022-08-17T07:37:46.490Z,985.3
2022-08-17T07:38:48.140Z,985.3
2022-08-17T07:40:15.278Z,985.24
2022-08-17T07:40:51.599Z,985.17
2022-08-17T07:41:58.476Z,985.06
2022-08-17T07:42:55.080Z,984.91
2022-08-17T07:43:56.814Z,984.83
2022-08-17T07:44:58.537Z,984.74
2022-08-17T07:46:00.274Z,984.86
2022-08-17T07:47:02.056Z,984.88
2022-08-17T07:48:03.741Z,984.91
2022-08-17T07:49:05.565Z,984.88
2022-08-17T07:50:07.194Z,984.82
2022-08-17T07:51:16.404Z,984.8
2022-08-17T07:52:48.492Z,984.93
2022-08-17T07:53:12.702Z,985
2022-08-17T07:54:14.921Z,985
2022-08-17T07:55:15.869Z,984.95
2022-08-17T07:56:17.615Z,984.9
2022-08-17T07:57:19.365Z,984.96
2022-08-17T07:58:21.098Z,985.16
2022-08-17T07:59:23.042Z,985.29
2022-08-17T08:00:32.146Z,985.51
2022-08-17T08:01:26.862Z,985.8
2022-08-17T08:02:31.101Z,985.8
2022-08-17T08:03:29.894Z,985.76
2022-08-17T08:04:59.854Z,985.79
2022-08-17T08:05:49.439Z,985.81
2022-08-17T08:06:35.209Z,985.8
2022-08-17T08:07:36.891Z,985.89
2022-08-17T08:08:39.085Z,985.94
2022-08-17T08:09:40.202Z,985.98
2022-08-17T08:10:45.065Z,985.99
2022-08-17T08:11:44.466Z,986.02
2022-08-17T08:12:45.378Z,986.01
2022-08-17T08:13:47.124Z,985.97
2022-08-17T08:14:48.840Z,986.02
2022-08-17T08:15:54.016Z,985.92
2022-08-17T08:16:52.398Z,985.91
2022-08-17T08:17:54.065Z,985.83
2022-08-17T08:18:57.176Z,985.9
2022-08-17T08:19:57.526Z,985.89
2022-08-17T08:20:59.518Z,985.86
2022-08-17T08:22:01.001Z,985.93
2022-08-17T08:23:02.982Z,985.9
2022-08-17T08:24:04.472Z,985.83
2022-08-17T08:25:06.307Z,985.8
2022-08-17T08:26:12.357Z,985.79
2022-08-17T08:27:09.666Z,985.74
2022-08-17T08:28:11.411Z,985.74
2022-08-17T08:29:13.233Z,985.69
2022-08-17T08:30:14.915Z,985.71
2022-08-17T08:31:16.619Z,985.7
2022-08-17T08:32:18.385Z,985.68
2022-08-17T08:33:20.234Z,985.66
2022-08-17T08:34:44.457Z,985.59
2022-08-17T08:35:23.567Z,985.57
2022-08-17T08:37:12.700Z,985.56
2022-08-17T08:37:34.525Z,985.55
2022-08-17T08:38:28.960Z,985.6
2022-08-17T08:39:30.560Z,985.58
2022-08-17T08:40:32.293Z,985.6
2022-08-17T08:41:33.943Z,985.59
2022-08-17T08:42:35.693Z,985.58
2022-08-17T08:43:37.414Z,985.52
2022-08-17T08:45:00.296Z,985.49
2022-08-17T08:45:40.905Z,985.44
2022-08-17T08:46:42.647Z,985.51
2022-08-17T08:47:44.379Z,985.52
2022-08-17T08:48:56.675Z,985.5
2022-08-17T08:50:02.685Z,985.49
2022-08-17T08:50:49.583Z,985.52
2022-08-17T08:51:51.678Z,985.58
2022-08-17T08:52:53.053Z,985.66
2022-08-17T08:53:54.791Z,985.68
2022-08-17T08:54:56.534Z,985.66
2022-08-17T08:55:58.248Z,985.56
2022-08-17T08:57:23.100Z,985.45
2022-08-17T08:58:01.747Z,985.4
2022-08-17T08:59:03.579Z,985.37
2022-08-17T09:00:05.217Z,985.37
2022-08-17T09:01:16.973Z,985.38
2022-08-17T09:02:08.684Z,985.45
2022-08-17T09:03:10.438Z,985.45
2022-08-17T09:04:24.101Z,985.47
2022-08-17T09:05:15.222Z,985.51
2022-08-17T09:06:32.013Z,985.51
2022-08-17T09:07:17.360Z,985.55
2022-08-17T09:08:19.110Z,985.54
2022-08-17T09:09:20.832Z,985.62
2022-08-17T09:10:22.628Z,985.69
2022-08-17T09:11:24.286Z,985.74
2022-08-17T09:12:26.027Z,985.83
2022-08-17T09:13:27.743Z,985.89
2022-08-17T09:14:29.677Z,985.95
2022-08-17T09:15:31.225Z,986
2022-08-17T09:16:32.964Z,985.96
2022-08-17T09:17:34.691Z,985.95
2022-08-17T09:18:59.896Z,985.99
2022-08-17T09:19:38.149Z,985.94
2022-08-17T09:20:39.881Z,985.94
2022-08-17T09:21:48.041Z,985.95
2022-08-17T09:22:43.483Z,985.98
2022-08-17T09:23:45.115Z,985.97
2022-08-17T09:24:46.851Z,986.03
2022-08-17T09:25:48.589Z,986.04
2022-08-17T09:26:50.325Z,986.09
2022-08-17T09:27:52.375Z,986.09
2022-08-17T09:28:53.780Z,986.03
2022-08-17T09:29:55.518Z,986
2022-08-17T09:30:57.263Z,985.98
2022-08-17T09:31:59.033Z,986.06
2022-08-17T09:33:00.734Z,986.14
2022-08-17T09:34:02.462Z,986.15
2022-08-17T09:35:04.259Z,986.16
2022-08-17T09:36:15.939Z,986.11
2022-08-17T09:37:07.648Z,986.1
2022-08-17T09:38:09.383Z,986.12
2022-08-17T09:39:11.122Z,986.08
2022-08-17T09:40:13.035Z,986.07
2022-08-17T09:41:14.670Z,986.14
2022-08-17T09:42:16.319Z,986.12
2022-08-17T09:43:18.060Z,986.13
2022-08-17T09:44:23.309Z,986.12
2022-08-17T09:45:21.517Z,986.09
2022-08-17T09:46:23.262Z,986.07
2022-08-17T09:47:25.119Z,986.1
2022-08-17T09:48:26.737Z,986.1
2022-08-17T09:49:28.497Z,986.02
2022-08-17T09:51:05.453Z,986.04
2022-08-17T09:51:32.077Z,986.01
2022-08-17T09:52:33.671Z,986
2022-08-17T09:53:35.427Z,986.03
2022-08-17T09:54:39.881Z,986.02
2022-08-17T09:55:38.882Z,985.94
2022-08-17T09:56:45.977Z,985.95
2022-08-17T09:57:42.353Z,985.96
2022-08-17T09:58:44.146Z,985.92
2022-08-17T09:59:45.904Z,985.99
2022-08-17T10:00:47.681Z,986.01
2022-08-17T10:01:49.529Z,986.02
2022-08-17T10:02:51.066Z,986.03
2022-08-17T10:03:52.796Z,986.14
2022-08-17T10:04:54.728Z,986.2
2022-08-17T10:05:56.333Z,986.19
2022-08-17T10:06:58.018Z,986.21
2022-08-17T10:07:59.743Z,986.14
2022-08-17T10:09:01.466Z,986.08
2022-08-17T10:10:03.157Z,985.99
2022-08-17T10:11:20.372Z,985.93
2022-08-17T10:12:06.644Z,985.94
2022-08-17T10:13:09.638Z,985.88
2022-08-17T10:14:37.296Z,985.84
2022-08-17T10:15:11.853Z,985.83
2022-08-17T10:16:18.583Z,985.8
2022-08-17T10:17:15.379Z,985.76
2022-08-17T10:18:17.048Z,985.83
2022-08-17T10:19:18.792Z,985.93
2022-08-17T10:20:20.556Z,985.95
2022-08-17T10:21:22.252Z,985.88
2022-08-17T10:22:34.664Z,985.95
2022-08-17T10:23:25.736Z,986
2022-08-17T10:24:27.467Z,985.98
2022-08-17T10:25:42.878Z,985.89
2022-08-17T10:26:46.251Z,985.83
2022-08-17T10:27:32.655Z,985.75
2022-08-17T10:28:34.457Z,985.75
2022-08-17T10:29:48.902Z,985.69
2022-08-17T10:30:37.890Z,985.69
2022-08-17T10:31:39.635Z,985.72
2022-08-17T10:32:41.345Z,985.72
2022-08-17T10:33:43.076Z,985.74
2022-08-17T10:34:44.795Z,985.79
2022-08-17T10:35:46.535Z,985.83
2022-08-17T10:36:48.406Z,985.87
2022-08-17T10:37:50.138Z,985.84
2022-08-17T10:38:51.737Z,985.84
2022-08-17T10:39:53.577Z,985.8
2022-08-17T10:40:55.241Z,985.86
2022-08-17T10:41:57.049Z,985.87
2022-08-17T10:42:58.698Z,985.85
2022-08-17T10:44:39.247Z,985.88
2022-08-17T10:45:02.148Z,985.92
2022-08-17T10:46:30.466Z,985.94
2022-08-17T10:47:05.726Z,985.94
2022-08-17T10:48:07.694Z,985.94
2022-08-17T10:49:09.093Z,985.93
2022-08-17T10:50:10.833Z,985.9
2022-08-17T10:51:12.638Z,985.87
2022-08-17T10:52:14.340Z,985.92
2022-08-17T10:53:19.845Z,985.98
2022-08-17T10:54:17.764Z,985.95
2022-08-17T10:55:19.562Z,985.93
2022-08-17T10:56:21.269Z,985.91
2022-08-17T10:57:22.975Z,985.92
2022-08-17T10:58:24.738Z,985.95
2022-08-17T10:59:26.443Z,986.03
2022-08-17T11:00:28.221Z,986.03
2022-08-17T11:01:30.199Z,986.05
2022-08-17T11:02:31.706Z,986.03
2022-08-17T11:03:33.416Z,986.02
2022-08-17T11:04:35.198Z,986.01
2022-08-17T11:05:40.165Z,986.02
2022-08-17T11:06:38.852Z,986
2022-08-17T11:07:40.389Z,986.02
2022-08-17T11:08:42.047Z,986.04
2022-08-17T11:09:43.792Z,986.01
2022-08-17T11:10:49.906Z,986.02
2022-08-17T11:11:47.287Z,985.96
2022-08-17T11:12:49.073Z,986
2022-08-17T11:13:50.788Z,985.93
2022-08-17T11:14:52.465Z,985.93
2022-08-17T11:15:57.592Z,985.93
2022-08-17T11:16:56.067Z,985.89
2022-08-17T11:17:57.820Z,985.93
2022-08-17T11:18:59.410Z,985.87
2022-08-17T11:20:01.141Z,985.83
2022-08-17T11:21:10.112Z,985.85
2022-08-17T11:22:04.614Z,985.88
2022-08-17T11:23:06.346Z,985.86
2022-08-17T11:24:08.115Z,985.9
2022-08-17T11:25:09.825Z,985.92
2022-08-17T11:26:11.554Z,985.92
2022-08-17T11:27:13.324Z,985.91
2022-08-17T11:28:15.027Z,985.92
2022-08-17T11:29:16.951Z,985.92
2022-08-17T11:30:18.795Z,985.88
2022-08-17T11:31:20.404Z,985.89
2022-08-17T11:32:22.118Z,985.91
2022-08-17T11:33:23.805Z,985.87
2022-08-17T11:34:25.430Z,985.9
2022-08-17T11:35:27.158Z,985.89
2022-08-17T11:36:28.902Z,985.87
2022-08-17T11:37:30.641Z,985.89
2022-08-17T11:38:32.394Z,985.9
2022-08-17T11:39:34.303Z,985.89
2022-08-17T11:40:35.854Z,985.87
2022-08-17T11:41:37.575Z,985.88
2022-08-17T11:42:39.344Z,985.87
2022-08-17T11:43:42.839Z,985.9
2022-08-17T11:44:42.914Z,985.91
2022-08-17T11:45:44.518Z,985.87
2022-08-17T11:46:46.253Z,985.86
2022-08-17T11:48:08.991Z,985.94
2022-08-17T11:48:49.723Z,985.93
2022-08-17T11:49:51.462Z,985.94
2022-08-17T11:50:53.188Z,985.94
2022-08-17T11:51:54.988Z,985.96
2022-08-17T11:52:56.655Z,985.98
2022-08-17T11:54:21.440Z,985.94
2022-08-17T11:55:17.586Z,985.98
2022-08-17T11:56:01.879Z,986.01
2022-08-17T11:57:03.582Z,986.04
2022-08-17T11:58:05.399Z,986.05
2022-08-17T11:59:07.060Z,986.04
2022-08-17T12:00:08.932Z,986.08
2022-08-17T12:01:10.560Z,986.07
2022-08-17T12:02:12.294Z,986.06
2022-08-17T12:03:14.106Z,986.09
2022-08-17T12:04:15.884Z,986.08
2022-08-17T12:05:17.520Z,986.07
2022-08-17T12:06:19.265Z,986.03
2022-08-17T12:07:20.978Z,986.04
2022-08-17T12:08:22.756Z,985.97
2022-08-17T12:09:24.417Z,985.96
2022-08-17T12:10:26.153Z,986.02
2022-08-17T12:11:55.623Z,985.94
2022-08-17T12:12:29.773Z,986
2022-08-17T12:13:38.641Z,985.99
2022-08-17T12:15:05.730Z,986
2022-08-17T12:15:34.948Z,986.01
2022-08-17T12:16:36.631Z,985.98
2022-08-17T12:17:40.140Z,986
2022-08-17T12:18:40.037Z,986.01
2022-08-17T12:19:41.849Z,986.05
2022-08-17T12:20:43.514Z,986.04
2022-08-17T12:21:45.240Z,986.09
2022-08-17T12:22:46.972Z,986.11
2022-08-17T12:23:48.779Z,986.11
2022-08-17T12:24:50.527Z,986.09
2022-08-17T12:25:52.313Z,986.1
2022-08-17T12:26:53.907Z,986.09
2022-08-17T12:28:06.003Z,986.09
2022-08-17T12:28:57.433Z,986.06
2022-08-17T12:29:59.125Z,986.12
2022-08-17T12:31:01.378Z,986.05
2022-08-17T12:32:02.946Z,986.04
2022-08-17T12:33:04.336Z,986.04
2022-08-17T12:34:06.091Z,986.04
2022-08-17T12:35:08.025Z,986.04
2022-08-17T12:36:09.537Z,986.05
2022-08-17T12:37:11.319Z,986.07
2022-08-17T12:38:32.601Z,986.03
2022-08-17T12:39:21.456Z,986.02
2022-08-17T12:40:16.615Z,985.99
2022-08-17T12:41:18.277Z,985.95
2022-08-17T12:42:20.017Z,985.93
2022-08-17T12:43:21.683Z,985.92
2022-08-17T12:44:23.435Z,985.94
2022-08-17T12:45:25.144Z,985.92
2022-08-17T12:46:26.958Z,985.95
2022-08-17T12:47:29.511Z,985.93
2022-08-17T12:48:30.349Z,985.92
2022-08-17T12:49:32.236Z,985.88
2022-08-17T12:50:33.957Z,985.89
2022-08-17T12:51:35.699Z,985.87
2022-08-17T12:52:37.439Z,985.9
2022-08-17T12:53:39.029Z,985.85
2022-08-17T12:54:40.795Z,985.84
2022-08-17T12:55:42.509Z,985.88
2022-08-17T12:56:44.254Z,985.86
2022-08-17T12:57:46.108Z,985.84
2022-08-17T12:58:47.761Z,985.81
2022-08-17T12:59:49.436Z,985.85
2022-08-17T13:00:51.337Z,985.82
2022-08-17T13:01:52.952Z,985.75
2022-08-17T13:02:54.748Z,985.73
2022-08-17T13:03:56.412Z,985.72
2022-08-17T13:04:58.415Z,985.69
2022-08-17T13:05:59.862Z,985.78
2022-08-17T13:07:01.607Z,985.69
2022-08-17T13:08:03.322Z,985.67
2022-08-17T13:09:05.046Z,985.69
2022-08-17T13:10:06.809Z,985.67
2022-08-17T13:11:08.527Z,985.66
2022-08-17T13:12:10.256Z,985.64
2022-08-17T13:13:12.095Z,985.66
2022-08-17T13:14:13.793Z,985.67
2022-08-17T13:15:15.463Z,985.69
2022-08-17T13:16:17.218Z,985.63
2022-08-17T13:17:18.929Z,985.63
2022-08-17T13:18:20.663Z,985.56
2022-08-17T13:19:39.849Z,985.57
2022-08-17T13:20:24.134Z,985.55
2022-08-17T13:21:25.884Z,985.49
2022-08-17T13:22:27.669Z,985.48
2022-08-17T13:23:29.420Z,985.47
2022-08-17T13:24:38.374Z,985.43
2022-08-17T13:25:32.877Z,985.4
2022-08-17T13:26:34.616Z,985.41
2022-08-17T13:27:36.279Z,985.33
2022-08-17T13:28:38.026Z,985.37
2022-08-17T13:29:39.966Z,985.3
2022-08-17T13:30:41.511Z,985.35
2022-08-17T13:31:52.936Z,985.32
2022-08-17T13:32:45.626Z,985.33
2022-08-17T13:33:46.716Z,985.29
2022-08-17T13:35:09.659Z,985.3
2022-08-17T13:35:50.662Z,985.32
2022-08-17T13:36:52.071Z,985.34
2022-08-17T13:37:53.641Z,985.31
2022-08-17T13:38:55.431Z,985.38
2022-08-17T13:39:57.184Z,985.39
2022-08-17T13:40:58.900Z,985.36
2022-08-17T13:42:00.602Z,985.31
2022-08-17T13:43:02.478Z,985.27
2022-08-17T13:44:04.064Z,985.29
2022-08-17T13:45:35.268Z,985.3
2022-08-17T13:46:17.507Z,985.24
2022-08-17T13:47:09.308Z,985.22
2022-08-17T13:48:12.356Z,985.2
2022-08-17T13:49:12.726Z,985.23
2022-08-17T13:50:14.446Z,985.25
2022-08-17T13:51:23.577Z,985.27
2022-08-17T13:52:18.060Z,985.25
2022-08-17T13:53:19.770Z,985.29
2022-08-17T13:54:21.475Z,985.31
2022-08-17T13:55:23.204Z,985.28
2022-08-17T13:56:33.344Z,985.27
2022-08-17T13:57:26.738Z,985.26
2022-08-17T13:58:28.407Z,985.23
2022-08-17T13:59:53.520Z,985.26
2022-08-17T14:00:32.261Z,985.25
2022-08-17T14:01:33.625Z,985.23
2022-08-17T14:02:35.592Z,985.23
2022-08-17T14:03:37.058Z,985.22
2022-08-17T14:04:38.828Z,985.17
2022-08-17T14:05:40.485Z,985.14
2022-08-17T14:06:52.354Z,985.13
2022-08-17T14:07:44.069Z,985.08
2022-08-17T14:08:45.686Z,985.1
2022-08-17T14:09:47.483Z,985.1
2022-08-17T14:10:49.156Z,985.07
2022-08-17T14:11:50.882Z,985.03
2022-08-17T14:12:52.676Z,985.05
2022-08-17T14:13:54.355Z,984.97
2022-08-17T14:14:56.099Z,984.95
2022-08-17T14:15:57.819Z,984.94
2022-08-17T14:16:59.554Z,984.94
2022-08-17T14:18:01.306Z,984.95
2022-08-17T14:19:03.033Z,984.93
2022-08-17T14:20:04.762Z,984.92
2022-08-17T14:21:06.626Z,984.9
2022-08-17T14:22:08.236Z,984.9
2022-08-17T14:23:09.989Z,984.87
2022-08-17T14:24:11.844Z,984.86
2022-08-17T14:25:13.441Z,984.87
2022-08-17T14:26:30.453Z,984.89
2022-08-17T14:27:17.021Z,984.89
2022-08-17T14:28:18.649Z,984.9
2022-08-17T14:29:20.400Z,984.85
2022-08-17T14:30:22.142Z,984.88
2022-08-17T14:31:27.014Z,984.88
2022-08-17T14:32:25.613Z,984.89
2022-08-17T14:33:27.352Z,984.85
2022-08-17T14:34:29.061Z,984.86
2022-08-17T14:35:30.817Z,984.84
2022-08-17T14:36:32.521Z,984.82
2022-08-17T14:37:34.286Z,984.86
2022-08-17T14:38:36.138Z,984.82
2022-08-17T14:39:37.770Z,984.78
2022-08-17T14:40:39.603Z,984.78
2022-08-17T14:41:41.201Z,984.78
2022-08-17T14:42:42.942Z,984.79
2022-08-17T14:43:44.893Z,984.76
2022-08-17T14:44:46.401Z,984.72
2022-08-17T14:45:48.137Z,984.71
2022-08-17T14:46:49.862Z,984.73
2022-08-17T14:47:51.806Z,984.71
2022-08-17T14:48:57.093Z,984.78
2022-08-17T14:49:55.108Z,984.74
2022-08-17T14:50:56.820Z,984.78
2022-08-17T14:51:58.546Z,984.79
2022-08-17T14:53:01.415Z,984.82
2022-08-17T14:54:02.026Z,984.8
2022-08-17T14:55:03.759Z,984.78
2022-08-17T14:56:05.482Z,984.77
2022-08-17T14:57:24.725Z,984.73
2022-08-17T14:58:09.258Z,984.75
2022-08-17T14:59:10.695Z,984.71
2022-08-17T15:00:12.606Z,984.7
2022-08-17T15:01:29.740Z,984.69
2022-08-17T15:02:15.923Z,984.67
2022-08-17T15:03:17.670Z,984.67
2022-08-17T15:04:19.380Z,984.66
2022-08-17T15:05:28.075Z,984.61
2022-08-17T15:06:28.018Z,984.59
2022-08-17T15:07:30.451Z,984.62
2022-08-17T15:08:31.461Z,984.57
2022-08-17T15:09:33.187Z,984.59
2022-08-17T15:10:35.112Z,984.56
2022-08-17T15:11:36.668Z,984.55
2022-08-17T15:12:38.399Z,984.6
2022-08-17T15:13:52.070Z,984.59
2022-08-17T15:14:41.931Z,984.59
2022-08-17T15:15:43.585Z,984.59
2022-08-17T15:16:45.337Z,984.59
2022-08-17T15:17:47.073Z,984.62
2022-08-17T15:18:48.804Z,984.58
2022-08-17T15:19:50.551Z,984.59
2022-08-17T15:20:52.321Z,984.57
2022-08-17T15:21:54.080Z,984.64
2022-08-17T15:22:56.171Z,984.62
2022-08-17T15:23:57.470Z,984.65
2022-08-17T15:24:59.217Z,984.7
2022-08-17T15:26:00.952Z,984.71
2022-08-17T15:27:02.674Z,984.65
2022-08-17T15:28:04.412Z,984.65
2022-08-17T15:29:06.151Z,984.66
2022-08-17T15:30:07.909Z,984.73
2022-08-17T15:31:41.116Z,984.75
2022-08-17T15:32:11.990Z,984.75
2022-08-17T15:33:13.119Z,984.77
2022-08-17T15:34:14.820Z,984.76
2022-08-17T15:35:16.563Z,984.79
2022-08-17T15:36:25.528Z,984.79
2022-08-17T15:37:20.040Z,984.82
2022-08-17T15:38:21.765Z,984.8
2022-08-17T15:39:23.500Z,984.81
2022-08-17T15:40:25.296Z,984.74
2022-08-17T15:41:26.978Z,984.69
2022-08-17T15:42:28.733Z,984.7
2022-08-17T15:43:30.602Z,984.69
2022-08-17T15:44:34.758Z,984.69
2022-08-17T15:45:33.901Z,984.71
2022-08-17T15:46:35.636Z,984.71
2022-08-17T15:47:37.510Z,984.74
2022-08-17T15:48:39.179Z,984.75
2022-08-17T15:49:40.854Z,984.73
2022-08-17T15:50:42.606Z,984.71
2022-08-17T15:51:44.314Z,984.75
2022-08-17T15:52:46.190Z,984.7
2022-08-17T15:53:47.779Z,984.68
2022-08-17T15:54:49.526Z,984.67
2022-08-17T15:55:51.245Z,984.62
2022-08-17T15:56:52.999Z,984.59
2022-08-17T15:57:54.878Z,984.62
2022-08-17T15:58:56.601Z,984.62
2022-08-17T15:59:58.652Z,984.64
2022-08-17T16:01:16.645Z,984.58
2022-08-17T16:03:15.924Z,984.56
2022-08-17T16:03:44.507Z,984.55
2022-08-17T16:04:07.176Z,984.51
2022-08-17T16:05:08.789Z,984.48
2022-08-17T16:06:23.928Z,984.51
2022-08-17T16:07:10.506Z,984.54
2022-08-17T16:08:17.104Z,984.5
2022-08-17T16:09:14.167Z,984.54
2022-08-17T16:10:19.048Z,984.51
2022-08-17T16:11:24.729Z,984.52
2022-08-17T16:12:19.158Z,984.46
2022-08-17T16:13:21.225Z,984.44
2022-08-17T16:14:22.525Z,984.42
2022-08-17T16:15:24.254Z,984.47
2022-08-17T16:16:29.098Z,984.44
2022-08-17T16:17:38.523Z,984.43
2022-08-17T16:18:29.511Z,984.51
2022-08-17T16:19:31.158Z,984.54
2022-08-17T16:20:32.909Z,984.54
2022-08-17T16:21:42.741Z,984.52
2022-08-17T16:22:36.432Z,984.53
2022-08-17T16:23:38.251Z,984.5
2022-08-17T16:24:42.483Z,984.53
2022-08-17T16:25:53.202Z,984.54
2022-08-17T16:26:43.355Z,984.57
2022-08-17T16:27:46.530Z,984.58
2022-08-17T16:28:46.904Z,984.59
2022-08-17T16:29:48.568Z,984.61
2022-08-17T16:30:50.387Z,984.62
2022-08-17T16:31:52.263Z,984.6
2022-08-17T16:32:53.775Z,984.62
2022-08-17T16:34:16.047Z,984.6
2022-08-17T16:34:57.305Z,984.62
2022-08-17T16:35:58.918Z,984.67
2022-08-17T16:37:00.652Z,984.67
2022-08-17T16:38:02.748Z,984.64
2022-08-17T16:39:04.255Z,984.66
2022-08-17T16:40:06.082Z,984.65
2022-08-17T16:41:17.607Z,984.66
2022-08-17T16:42:09.325Z,984.59
2022-08-17T16:43:11.481Z,984.63
2022-08-17T16:44:15.430Z,984.63
2022-08-17T16:45:14.672Z,984.61
2022-08-17T16:46:47.993Z,984.56
2022-08-17T16:47:18.001Z,984.6
2022-08-17T16:48:19.737Z,984.61
2022-08-17T16:49:35.896Z,984.61
2022-08-17T16:50:23.282Z,984.66
2022-08-17T16:51:25.006Z,984.65
2022-08-17T16:52:33.044Z,984.69
2022-08-17T16:53:28.474Z,984.67
2022-08-17T16:54:30.187Z,984.68
2022-08-17T16:55:31.886Z,984.68
2022-08-17T16:56:33.614Z,984.67
2022-08-17T16:57:35.505Z,984.72
2022-08-17T16:58:37.219Z,984.73
2022-08-17T16:59:43.758Z,984.74
2022-08-17T17:00:40.928Z,984.74
2022-08-17T17:01:42.293Z,984.75
2022-08-17T17:02:44.304Z,984.78
2022-08-17T17:03:45.772Z,984.72
2022-08-17T17:04:47.783Z,984.7
2022-08-17T17:05:51.405Z,984.72
2022-08-17T17:06:51.412Z,984.71
2022-08-17T17:07:53.217Z,984.69
2022-08-17T17:08:54.722Z,984.67
2022-08-17T17:09:56.162Z,984.66
2022-08-17T17:10:57.903Z,984.63
2022-08-17T17:11:59.634Z,984.66
2022-08-17T17:13:04.247Z,984.6
2022-08-17T17:14:03.170Z,984.62
2022-08-17T17:15:05.183Z,984.57
2022-08-17T17:16:21.920Z,984.57
2022-08-17T17:17:08.443Z,984.53
2022-08-17T17:18:10.183Z,984.55
2022-08-17T17:19:11.853Z,984.54
2022-08-17T17:20:13.660Z,984.55
2022-08-17T17:21:30.814Z,984.56
2022-08-17T17:22:17.007Z,984.58
2022-08-17T17:23:18.718Z,984.62
2022-08-17T17:24:15.416Z,984.59
2022-08-17T17:25:01.918Z,984.65
2022-08-17T17:26:03.427Z,984.54
2022-08-17T17:27:15.473Z,984.6
2022-08-17T17:28:17.224Z,984.63
2022-08-17T17:29:18.895Z,984.62
2022-08-17T17:30:20.638Z,984.63
2022-08-17T17:31:29.587Z,984.66
2022-08-17T17:32:24.160Z,984.67
2022-08-17T17:33:25.861Z,984.67
2022-08-17T17:34:27.557Z,984.64
2022-08-17T17:35:29.311Z,984.64
2022-08-17T17:36:31.038Z,984.68
2022-08-17T17:37:32.813Z,984.63
2022-08-17T17:38:34.468Z,984.64
2022-08-17T17:39:36.239Z,984.7
2022-08-17T17:40:38.086Z,984.68
2022-08-17T17:41:39.777Z,984.66
2022-08-17T17:42:41.453Z,984.65
2022-08-17T17:43:43.195Z,984.61
2022-08-17T17:44:44.966Z,984.63
2022-08-17T17:45:46.652Z,984.63
2022-08-17T17:46:48.462Z,984.65
2022-08-17T17:47:50.231Z,984.62
2022-08-17T17:48:51.823Z,984.53
2022-08-17T17:49:53.578Z,984.54
2022-08-17T17:50:55.319Z,984.52
2022-08-17T17:52:10.178Z,984.49
2022-08-17T17:52:58.791Z,984.51
2022-08-17T17:54:00.515Z,984.51
2022-08-17T17:55:02.331Z,984.51
2022-08-17T17:56:04.015Z,984.53
2022-08-17T17:57:05.740Z,984.53
2022-08-17T17:58:07.476Z,984.6
2022-08-17T17:59:12.549Z,984.56
2022-08-17T18:00:10.925Z,984.57
2022-08-17T18:01:20.206Z,984.56
2022-08-17T18:02:14.525Z,984.61
2022-08-17T18:03:16.101Z,984.56
2022-08-17T18:04:20.537Z,984.63
2022-08-17T18:05:19.589Z,984.66
2022-08-17T18:06:28.538Z,984.65
2022-08-17T18:07:23.052Z,984.67
2022-08-17T18:08:34.029Z,984.7
2022-08-17T18:09:26.502Z,984.63
2022-08-17T18:10:29.872Z,984.64
2022-08-17T18:11:35.098Z,984.67
2022-08-17T18:12:32.066Z,984.71
2022-08-17T18:13:33.473Z,984.67
2022-08-17T18:14:35.206Z,984.67
2022-08-17T18:15:36.995Z,984.66
2022-08-17T18:16:38.662Z,984.68
2022-08-17T18:17:40.421Z,984.68
2022-08-17T18:18:42.208Z,984.66
2022-08-17T18:19:43.974Z,984.65
2022-08-17T18:20:53.989Z,984.62
2022-08-17T18:21:47.349Z,984.59
2022-08-17T18:22:49.153Z,984.64
2022-08-17T18:23:51.191Z,984.68
2022-08-17T18:24:52.556Z,984.69
2022-08-17T18:25:54.356Z,984.7
2022-08-17T18:26:55.987Z,984.69
2022-08-17T18:27:57.761Z,984.7
2022-08-17T18:28:59.496Z,984.7
2022-08-17T18:30:04.460Z,984.67
2022-08-17T18:31:03.024Z,984.65
2022-08-17T18:32:04.689Z,984.68
2022-08-17T18:33:06.420Z,984.64
2022-08-17T18:34:18.676Z,984.62
2022-08-17T18:35:09.895Z,984.61
2022-08-17T18:36:21.562Z,984.61
2022-08-17T18:37:16.123Z,984.61
2022-08-17T18:38:19.843Z,984.58
2022-08-17T18:39:17.185Z,984.63
2022-08-17T18:40:18.731Z,984.61
2022-08-17T18:41:20.294Z,984.68
2022-08-17T18:42:22.150Z,984.69
2022-08-17T18:43:23.861Z,984.73
2022-08-17T18:44:25.591Z,984.77
2022-08-17T18:45:27.321Z,984.78
2022-08-17T18:46:32.022Z,984.81
2022-08-17T18:47:30.728Z,984.85
2022-08-17T18:48:33.138Z,984.9
2022-08-17T18:49:34.183Z,984.88
2022-08-17T18:50:35.841Z,984.9
2022-08-17T18:51:42.073Z,984.86
2022-08-17T18:52:39.181Z,984.9
2022-08-17T18:53:40.975Z,984.91
2022-08-17T18:54:42.640Z,984.91
2022-08-17T18:55:44.442Z,984.95
2022-08-17T18:56:46.168Z,984.98
2022-08-17T18:57:47.860Z,984.95
2022-08-17T18:58:49.753Z,985
2022-08-17T18:59:51.311Z,984.97
2022-08-17T19:00:53.398Z,985.02
2022-08-17T19:01:58.464Z,985.04
2022-08-17T19:02:56.761Z,985.03
2022-08-17T19:03:58.459Z,985.02
2022-08-17T19:05:00.497Z,985
2022-08-17T19:06:01.746Z,985.03
2022-08-17T19:07:03.635Z,985.05
2022-08-17T19:08:05.362Z,985.07
2022-08-17T19:09:06.951Z,985.08
2022-08-17T19:10:08.799Z,985.06
2022-08-17T19:11:17.677Z,985.08
2022-08-17T19:12:12.299Z,985.11
2022-08-17T19:13:14.056Z,985.13